KZZV/ZZV METAR and TAF weather

Enter ICAO airport designator
Station Type Date Time Source
KZZV METAR 2020/10/29 16:53 UTC NOAA

KZZV 291653Z AUTO 01010KT 8SM -RA OVC008 09/08 A2962 RMK AO2 CIG 005V011 SLP030 P0005 T00940078


Station Type Date Time Source
KZZV Decoded METAR 2020/10/29 16:53 UTC NOAA

ZANESVILLE MUNICIPAL AIRPORT , OH, United States (KZZV) 39-57N 81-54W 268M
Oct 29, 2020 - 12:53 PM EDT / 2020.10.29 1653 UTC
Wind: from the N (010 degrees) at 12 MPH (10 KT):0
Visibility: 8 mile(s):0
Sky conditions: overcast
Weather: light rain
Precipitation last hour: 0.05 inches
Temperature: 48.9 F (9.4 C)
Dew Point: 46.0 F (7.8 C)
Relative Humidity: 89%
Pressure (altimeter): 29.62 in. Hg (1003 hPa)
ob: KZZV 291653Z AUTO 01010KT 8SM -RA OVC008 09/08 A2962 RMK AO2 CIG 005V011 SLP030 P0005 T00940078
cycle: 17

Station Type Date Time Source
KZZV TAF 2020/10/29 12:22 UTC NOAA

TAF KZZV 291120Z 2912/3012 04005KT 3SM -RA BR OVC003
FM291500 03008KT 2SM -RA BR OVC003
FM292300 36008G16KT 5SM -RA BR OVC006
FM300900 35005KT P6SM OVC010

Example: see airport list